M I D A S
Marine Information and Data Acquisition System
Tripno 1913 of the Zeeleeuw from 2010-07-02 05:35:35 to 2010-07-02 16:30:11
Back to CruiseResearch ActivitiesStationsMapUnderway DataData graphs

EquipmentUnitsComments
TimeDGPSUTC
LatitudeDGPSDM.mWGS84
LongitudeDGPSDM.mWGS84
SpeedMeteo Stationm/sRelative wind speed
DirectionMeteo StationdegRelative wind direction
TemperatureMeteo Stationdeg CelciusAir temperature
PressureMeteo StationPaAtmospheric pressure
HumidityMeteo Station%Relative humidity
Missing or incorrect values are displayed as -999
Metereological data collected by the RV Zeeleeuw from 2010-07-02 05:37:34 to 2010-07-02 16:40:22
Time Latitude Longitude Speed Direction Temperature Pressure Humidity
2010-07-02 05:38 51°13.676 2°55.903 1.8 23 22.7 101070 41
2010-07-02 05:39 51°13.692 2°55.812 3.6 37 22.7 101080 41
2010-07-02 05:40 51°13.696 2°55.731 3.3 25 22.8 101090 41
2010-07-02 05:41 51°13.722 2°55.736 3.1 25 22.7 101090 40
2010-07-02 05:42 51°13.785 2°55.681 2.7 245 22.7 101090 42
2010-07-02 05:43 51°13.882 2°55.593 2.7 252 22.8 101090 40
2010-07-02 05:44 51°13.997 2°55.507 -999 255 22.8 101090 41
2010-07-02 05:45 51°14.121 2°55.413 0.9 248 22.8 101090 41
2010-07-02 05:46 51°14.248 2°55.29 2.9 22 22.9 101090 41
2010-07-02 05:47 51°14.4 2°55.149 4.5 23 22.8 101080 41
2010-07-02 05:48 51°14.56 2°55.005 4.6 29 22.7 101080 42
2010-07-02 05:49 51°14.737 2°54.843 4.2 31 22.6 101080 42
2010-07-02 05:50 51°14.926 2°54.645 4.9 22 22.5 101080 42
2010-07-02 05:51 51°15.114 2°54.435 4.5 24 22.4 101080 41
2010-07-02 05:52 51°15.297 2°54.214 4.9 30 22.2 101080 43
2010-07-02 05:53 51°15.481 2°53.994 4.6 23 22.1 101080 44
2010-07-02 05:54 51°15.663 2°53.773 4.9 21 21.9 101080 43
2010-07-02 05:55 51°15.841 2°53.547 5.1 23 21.8 101080 45
2010-07-02 05:56 51°16.039 2°53.358 3.5 29 21.6 101080 46
2010-07-02 05:57 51°16.256 2°53.214 2.7 24 21.5 101080 45
2010-07-02 05:58 51°16.473 2°53.074 2.8 27 21.4 101080 46
2010-07-02 05:59 51°16.691 2°52.939 2.2 25 21.3 101080 45
2010-07-02 06:00 51°16.915 2°52.827 2.8 25 21.3 101080 45
2010-07-02 06:01 51°17.145 2°52.727 1.9 25 21.2 101080 47
2010-07-02 06:02 51°17.378 2°52.649 1.6 27 21.2 101080 46
2010-07-02 06:03 51°17.616 2°52.643 0.8 324 21.2 101080 46
2010-07-02 06:04 51°17.855 2°52.65 0.9 330 21.1 101080 46
2010-07-02 06:05 51°18.093 2°52.654 0.7 323 21.1 101080 46
2010-07-02 06:06 51°18.33 2°52.7 0.6 335 21.1 101090 47
2010-07-02 06:07 51°18.566 2°52.769 0.9 331 21 101090 45
2010-07-02 06:08 51°18.803 2°52.833 0.8 334 21 101080 47
2010-07-02 06:09 51°19.039 2°52.894 1.7 339 20.8 101080 47
2010-07-02 06:10 51°19.275 2°52.955 0.9 344 20.7 101080 47
2010-07-02 06:11 51°19.51 2°53.013 1.5 342 20.6 101080 47
2010-07-02 06:12 51°19.746 2°53.07 0.8 344 20.6 101080 48
2010-07-02 06:13 51°19.982 2°53.131 0.6 348 20.5 101080 47
2010-07-02 06:14 51°20.216 2°53.188 1.4 349 20.5 101080 48
2010-07-02 06:15 51°20.453 2°53.246 0.8 347 20.4 101080 48
2010-07-02 06:16 51°20.69 2°53.303 0.6 348 20.4 101090 49
2010-07-02 06:17 51°20.928 2°53.358 0.7 342 20.4 101090 49
2010-07-02 06:18 51°21.165 2°53.414 0.7 345 20.4 101090 49
2010-07-02 06:19 51°21.402 2°53.472 0.3 344 20.4 101090 49
2010-07-02 06:20 51°21.639 2°53.531 0.6 344 20.4 101090 49
2010-07-02 06:21 51°21.876 2°53.591 0.7 340 20.4 101090 49
2010-07-02 06:22 51°22.114 2°53.651 0.8 350 20.4 101090 49
2010-07-02 06:23 51°22.352 2°53.707 1.1 347 20.4 101080 48
2010-07-02 06:24 51°22.591 2°53.765 0.7 348 20.3 101080 48
2010-07-02 06:25 51°22.832 2°53.826 0.7 355 20.3 101080 49
2010-07-02 06:26 51°23.074 2°53.893 0.8 351 20.3 101080 48
2010-07-02 06:27 51°23.316 2°53.953 0.5 349 20.3 101080 49
2010-07-02 06:28 51°23.556 2°54.012 0.7 341 20.3 101080 49
2010-07-02 06:29 51°23.795 2°54.068 0.7 344 20.2 101080 49
2010-07-02 06:30 51°24.034 2°54.121 0.7 345 20.2 101090 49
2010-07-02 06:31 51°24.272 2°54.174 0.6 349 20.2 101080 48
2010-07-02 06:32 51°24.511 2°54.227 0.6 341 20.2 101090 48
2010-07-02 06:33 51°24.751 2°54.278 0.5 338 20.2 101090 50
2010-07-02 06:34 51°24.991 2°54.33 0.7 333 20.2 101090 50
2010-07-02 06:35 51°25.232 2°54.384 0.8 319 20.3 101090 50
2010-07-02 06:36 51°25.473 2°54.436 0.3 25 20.3 101100 50
2010-07-02 06:37 51°25.714 2°54.492 1.1 320 20.4 101100 50
2010-07-02 06:38 51°25.956 2°54.55 1 31 20.4 101100 50
2010-07-02 06:39 51°26.198 2°54.61 1.5 316 20.4 101090 50
2010-07-02 06:40 51°26.441 2°54.67 0.4 331 20.3 101090 49
2010-07-02 06:41 51°26.685 2°54.724 0.4 317 20.4 101090 49
2010-07-02 06:42 51°26.931 2°54.758 0.8 317 20.4 101090 49
2010-07-02 06:43 51°27.173 2°54.778 0.8 22 20.4 101090 48
2010-07-02 06:44 51°27.414 2°54.797 0.8 30 20.4 101090 50
2010-07-02 06:45 51°27.653 2°54.816 1.8 318 20.4 101090 48
2010-07-02 06:46 51°27.893 2°54.836 0.2 317 20.3 101090 49
2010-07-02 06:47 51°28.134 2°54.856 2.2 24 20.3 101090 49
2010-07-02 06:48 51°28.374 2°54.871 0.6 29 20.2 101100 48
2010-07-02 06:49 51°28.615 2°54.89 1.8 24 20.2 101100 48
2010-07-02 06:50 51°28.856 2°54.908 0.3 25 20.2 101100 48
2010-07-02 06:51 51°29.095 2°54.922 1.6 281 20.2 101100 48
2010-07-02 06:52 51°29.334 2°54.933 0.7 25 20.2 101110 48
2010-07-02 06:53 51°29.574 2°54.946 2 284 20.2 101110 47
2010-07-02 06:54 51°29.815 2°54.969 1.4 24 20.2 101110 47
2010-07-02 06:55 51°30.058 2°55.006 1.8 318 20.1 101120 46
2010-07-02 06:56 51°30.304 2°55.05 1.7 319 20.1 101120 47
2010-07-02 06:57 51°30.549 2°55.092 2.3 278 20.1 101120 48
2010-07-02 06:58 51°30.792 2°55.158 1.8 326 20 101120 48
2010-07-02 06:59 51°31.033 2°55.245 1.3 327 20 101120 48
2010-07-02 07:00 51°31.275 2°55.341 1.9 284 20 101130 48
2010-07-02 07:01 51°31.517 2°55.434 1.5 326 20 101130 48
2010-07-02 07:02 51°31.757 2°55.431 3.3 28 19.9 101120 48
2010-07-02 07:03 51°31.996 2°55.371 2.1 241 19.9 101130 47
2010-07-02 07:04 51°32.138 2°55.339 1.7 270 19.8 101130 48
2010-07-02 07:05 51°32.232 2°55.348 2.6 25 19.8 101140 48
2010-07-02 07:06 51°32.311 2°55.374 0.3 27 19.8 101130 48
2010-07-02 07:07 51°32.386 2°55.403 2.8 28 20 101130 51
2010-07-02 07:08 51°32.458 2°55.421 2 77 19.9 101140 51
2010-07-02 07:09 51°32.525 2°55.459 0.2 79 19.9 101140 51
2010-07-02 07:10 51°32.591 2°55.494 2.3 23 20.1 101140 51
2010-07-02 07:11 51°32.628 2°55.513 3 81 20 101140 49
2010-07-02 07:12 51°32.643 2°55.518 3 25 20.1 101140 51
2010-07-02 07:13 51°32.661 2°55.527 3.4 23 19.9 101140 49
2010-07-02 07:14 51°32.68 2°55.537 3.9 25 19.7 101140 49
2010-07-02 07:15 51°32.7 2°55.548 4.1 77 19.6 101140 51
2010-07-02 07:16 51°32.722 2°55.571 3.9 35 19.6 101150 52
2010-07-02 07:17 51°32.738 2°55.622 4.3 15 19.5 101140 52
2010-07-02 07:18 51°32.733 2°55.673 4.5 358 19.5 101150 53
2010-07-02 07:19 51°32.714 2°55.701 5.4 342 19.4 101140 51
2010-07-02 07:20 51°32.698 2°55.7 5.3 328 19.4 101140 53
2010-07-02 07:21 51°32.693 2°55.693 5.2 276 19.5 101140 52
2010-07-02 07:22 51°32.692 2°55.683 5.3 327 19.7 101150 51
2010-07-02 07:23 51°32.693 2°55.677 5.3 328 19.8 101150 51
2010-07-02 07:24 51°32.697 2°55.673 4.8 -999 19.9 101140 51
2010-07-02 07:25 51°32.699 2°55.666 5 283 19.9 101150 51
2010-07-02 07:26 51°32.688 2°55.649 6.3 326 19.8 101140 51
2010-07-02 07:27 51°32.617 2°55.583 8.9 -999 19.7 101140 50
2010-07-02 07:28 51°32.536 2°55.508 7.4 284 19.7 101140 51
2010-07-02 07:29 51°32.5 2°55.488 4.9 341 19.6 101150 53
2010-07-02 07:30 51°32.493 2°55.498 4.7 351 19.5 101150 51
2010-07-02 07:31 51°32.493 2°55.513 4.3 -999 19.3 101150 52
2010-07-02 07:32 51°32.498 2°55.53 4.4 -999 19.2 101150 54
2010-07-02 07:33 51°32.505 2°55.547 4.4 -999 19 101160 54
2010-07-02 07:34 51°32.512 2°55.562 3.9 4 19 101160 53
2010-07-02 07:35 51°32.522 2°55.575 3.8 4 18.9 101160 53
2010-07-02 07:36 51°32.532 2°55.587 3.8 5 18.9 101160 54
2010-07-02 07:37 51°32.542 2°55.599 3.8 -999 18.9 101160 54
2010-07-02 07:38 51°32.553 2°55.608 3.8 3 18.9 101160 53
2010-07-02 07:39 51°32.563 2°55.617 3.9 5 18.9 101160 54
2010-07-02 07:40 51°32.575 2°55.626 3.8 3 18.9 101160 54
2010-07-02 07:41 51°32.588 2°55.635 4.1 7 18.9 101170 52
2010-07-02 07:42 51°32.6 2°55.642 4 8 18.9 101160 54
2010-07-02 07:43 51°32.613 2°55.65 3.8 -999 18.9 101170 51
2010-07-02 07:44 51°32.627 2°55.656 3.9 16 18.9 101170 52
2010-07-02 07:45 51°32.641 2°55.664 3.9 -999 18.9 101170 52
2010-07-02 07:46 51°32.655 2°55.671 4 22 18.9 101170 53
2010-07-02 07:47 51°32.669 2°55.678 3.8 -999 19 101180 52
2010-07-02 07:48 51°32.683 2°55.686 3.4 23 18.9 101180 54
2010-07-02 07:49 51°32.697 2°55.691 4.2 24 19 101180 52
2010-07-02 07:50 51°32.712 2°55.698 3.4 23 19 101180 53
2010-07-02 07:51 51°32.724 2°55.714 3.9 23 19 101180 51
2010-07-02 07:52 51°32.738 2°55.797 2.6 29 19 101180 52
2010-07-02 07:53 51°32.784 2°55.897 0.9 29 19 101190 52
2010-07-02 07:54 51°32.849 2°55.941 2.8 24 19.1 101190 54
2010-07-02 07:55 51°32.875 2°55.949 4.8 22 19.2 101180 53
2010-07-02 07:56 51°32.89 2°55.955 3.9 21 19.2 101180 52
2010-07-02 07:57 51°32.9 2°55.963 4.3 29 19.2 101180 52
2010-07-02 07:58 51°32.911 2°55.97 4.5 31 19.1 101180 53
2010-07-02 07:59 51°32.923 2°55.977 4.2 29 19.1 101180 51
2010-07-02 08:00 51°32.938 2°55.984 4 27 19.1 101180 53
2010-07-02 08:01 51°32.952 2°55.989 4.4 24 19.1 101180 51
2010-07-02 08:02 51°32.967 2°55.993 4.3 28 19.2 101180 53
2010-07-02 08:03 51°32.982 2°55.998 3.3 268 19.2 101180 51
2010-07-02 08:04 51°32.996 2°56.002 4.2 268 19.2 101180 52
2010-07-02 08:05 51°33.01 2°56.005 3 263 19.3 101180 52
2010-07-02 08:06 51°33.024 2°56.008 4.9 259 19.3 101180 52
2010-07-02 08:07 51°33.036 2°56.012 5.5 255 19.3 101190 51
2010-07-02 08:08 51°33.049 2°56.016 4.4 254 19.4 101180 52
2010-07-02 08:09 51°33.062 2°56.022 4.7 255 19.5 101190 52
2010-07-02 08:10 51°33.075 2°56.029 4.6 262 19.6 101190 51
2010-07-02 08:11 51°33.087 2°56.036 4.4 259 19.7 101190 52
2010-07-02 08:12 51°33.099 2°56.044 5.2 258 19.8 101190 50
2010-07-02 08:13 51°33.111 2°56.054 4.4 261 19.8 101190 50
2010-07-02 08:14 51°33.122 2°56.063 4.6 34 20 101190 50
2010-07-02 08:15 51°33.132 2°56.072 3.2 268 20.1 101190 49
2010-07-02 08:16 51°33.142 2°56.08 5.3 267 20 101190 49
2010-07-02 08:17 51°33.153 2°56.089 5.6 266 20 101200 49
2010-07-02 08:18 51°33.163 2°56.097 5 269 20 101200 50
2010-07-02 08:19 51°33.173 2°56.101 4.1 266 20 101200 50
2010-07-02 08:20 51°33.202 2°56.088 6.4 259 20 101200 50
2010-07-02 08:21 51°33.231 2°56.032 6.6 24 20.2 101200 48
2010-07-02 08:22 51°33.236 2°55.958 5.2 318 20.2 101190 49
2010-07-02 08:23 51°33.215 2°55.899 5.7 331 20.1 101200 47
2010-07-02 08:24 51°33.181 2°55.861 5.6 336 19.9 101200 50
2010-07-02 08:25 51°33.153 2°55.843 4.9 342 19.9 101200 49
2010-07-02 08:26 51°33.132 2°55.832 5.3 336 19.8 101200 50
2010-07-02 08:27 51°33.117 2°55.821 4.7 338 19.8 101200 50
2010-07-02 08:28 51°33.105 2°55.813 5.1 344 19.7 101200 50
2010-07-02 08:29 51°33.088 2°55.822 4.7 360 19.6 101190 51
2010-07-02 08:30 51°33.077 2°55.842 4.6 7 19.5 101200 51
2010-07-02 08:31 51°33.071 2°55.859 5.1 8 19.3 101200 50
2010-07-02 08:32 51°33.069 2°55.872 5.3 9 19.3 101200 52
2010-07-02 08:33 51°33.071 2°55.883 5.3 10 19.3 101200 50
2010-07-02 08:34 51°33.074 2°55.892 5.5 13 19.4 101200 50
2010-07-02 08:35 51°33.08 2°55.9 5.1 15 19.5 101200 51
2010-07-02 08:36 51°33.086 2°55.907 5.1 14 19.5 101200 51
2010-07-02 08:37 51°33.092 2°55.913 5.5 16 19.6 101200 51
2010-07-02 08:38 51°33.099 2°55.918 5.4 14 19.7 101200 49
2010-07-02 08:39 51°33.107 2°55.923 5.8 13 19.8 101200 49
2010-07-02 08:40 51°33.106 2°55.939 5.6 7 19.9 101200 50
2010-07-02 08:41 51°33.088 2°55.958 4.9 353 19.9 101200 49
2010-07-02 08:42 51°33.061 2°55.965 4.2 337 19.9 101210 50
2010-07-02 08:43 51°33.038 2°55.956 4 337 19.7 101210 49
2010-07-02 08:44 51°33.011 2°55.946 4.2 341 19.6 101210 51
2010-07-02 08:45 51°32.979 2°55.94 4.5 344 19.5 101210 52
2010-07-02 08:46 51°32.945 2°55.94 4.8 348 19.4 101210 51
2010-07-02 08:47 51°32.909 2°55.943 4.6 343 19.2 101210 51
2010-07-02 08:48 51°32.873 2°55.934 5.1 343 19.1 101210 52
2010-07-02 08:49 51°32.836 2°55.92 5.2 341 19.1 101210 51
2010-07-02 08:50 51°32.798 2°55.909 4.5 338 19.2 101210 51
2010-07-02 08:51 51°32.764 2°55.88 4.2 326 19.3 101220 52
2010-07-02 08:52 51°32.736 2°55.833 5.2 321 19.3 101220 52
2010-07-02 08:53 51°32.709 2°55.778 4.9 326 19.4 101220 51
2010-07-02 08:54 51°32.684 2°55.725 4.4 321 19.4 101220 52
2010-07-02 08:55 51°32.679 2°55.703 4.6 28 19.4 101230 51
2010-07-02 08:56 51°32.678 2°55.685 4.2 29 19.4 101230 51
2010-07-02 08:57 51°32.68 2°55.669 3.6 247 19.5 101230 51
2010-07-02 08:58 51°32.684 2°55.655 4 250 19.5 101230 51
2010-07-02 08:59 51°32.687 2°55.643 4.3 260 19.6 101230 50
2010-07-02 09:00 51°32.691 2°55.632 3.2 262 19.6 101230 51
2010-07-02 09:01 51°32.696 2°55.62 4 260 19.6 101240 51
2010-07-02 09:02 51°32.7 2°55.608 2.6 263 19.5 101240 51
2010-07-02 09:03 51°32.704 2°55.598 2.2 263 19.5 101240 50
2010-07-02 09:04 51°32.707 2°55.587 1.9 263 19.4 101240 50
2010-07-02 09:05 51°32.709 2°55.577 2.2 264 19.4 101240 50
2010-07-02 09:06 51°32.712 2°55.566 3.6 259 19.4 101240 50
2010-07-02 09:07 51°32.714 2°55.556 3.1 260 19.4 101240 51
2010-07-02 09:08 51°32.716 2°55.546 3.1 261 19.4 101240 50
2010-07-02 09:09 51°32.717 2°55.536 3.6 259 19.4 101240 50
2010-07-02 09:10 51°32.719 2°55.525 3.7 259 19.4 101250 51
2010-07-02 09:11 51°32.72 2°55.515 3.7 260 19.4 101240 51
2010-07-02 09:12 51°32.721 2°55.506 4.1 261 19.4 101250 50
2010-07-02 09:13 51°32.72 2°55.503 3.4 261 19.4 101250 50
2010-07-02 09:14 51°32.716 2°55.504 3.3 269 19.4 101250 50
2010-07-02 09:15 51°32.709 2°55.503 3.7 24 19.4 101250 50
2010-07-02 09:16 51°32.704 2°55.498 4.1 29 19.3 101250 51
2010-07-02 09:17 51°32.7 2°55.492 4.1 25 19.2 101250 50
2010-07-02 09:18 51°32.696 2°55.484 4.5 22 19.2 101250 51
2010-07-02 09:19 51°32.693 2°55.476 4.6 30 19.2 101250 50
2010-07-02 09:20 51°32.691 2°55.468 5.2 269 19.2 101250 49
2010-07-02 09:21 51°32.689 2°55.46 4.7 267 19.2 101260 49
2010-07-02 09:22 51°32.688 2°55.45 3.9 265 19.2 101260 49
2010-07-02 09:23 51°32.71 2°55.43 3.6 30 19.2 101260 50
2010-07-02 09:24 51°32.746 2°55.445 2.5 24 19.1 101260 49
2010-07-02 09:25 51°32.763 2°55.508 3.2 29 19.2 101260 51
2010-07-02 09:26 51°32.762 2°55.564 3.5 27 19.1 101260 50
2010-07-02 09:27 51°32.756 2°55.601 3.2 24 19.1 101260 52
2010-07-02 09:28 51°32.746 2°55.624 3.7 24 19 101270 51
2010-07-02 09:29 51°32.734 2°55.638 4.2 19 18.9 101260 51
2010-07-02 09:30 51°32.724 2°55.646 4.1 17 18.9 101270 50
2010-07-02 09:31 51°32.715 2°55.649 4.3 16 18.9 101260 52
2010-07-02 09:32 51°32.707 2°55.649 4 13 18.9 101260 51
2010-07-02 09:33 51°32.699 2°55.647 4 11 18.9 101260 52
2010-07-02 09:34 51°32.691 2°55.644 4.4 11 18.8 101260 52
2010-07-02 09:35 51°32.684 2°55.64 3.9 13 18.8 101260 51
2010-07-02 09:36 51°32.678 2°55.636 4.1 10 18.8 101260 53
2010-07-02 09:37 51°32.671 2°55.63 4.4 10 18.7 101260 53
2010-07-02 09:38 51°32.644 2°55.637 5.1 347 18.7 101260 51
2010-07-02 09:39 51°32.56 2°55.569 8.5 327 18.7 101260 52
2010-07-02 09:40 51°32.437 2°55.308 10.1 326 18.8 101240 51
2010-07-02 09:41 51°32.272 2°55.041 12 330 18.9 101240 52
2010-07-02 09:42 51°32.103 2°54.78 9.5 329 18.9 101250 51
2010-07-02 09:43 51°31.935 2°54.518 12.4 328 19 101250 51
2010-07-02 09:44 51°31.766 2°54.255 10.1 327 19 101250 51
2010-07-02 09:45 51°31.598 2°53.991 9.8 328 19 101240 51
2010-07-02 09:46 51°31.431 2°53.726 9.4 329 19 101250 51
2010-07-02 09:47 51°31.294 2°53.421 8.9 325 19 101250 51
2010-07-02 09:48 51°31.196 2°53.082 7.9 320 19 101250 51
2010-07-02 09:49 51°31.227 2°52.853 5.2 29 18.9 101260 50
2010-07-02 09:50 51°31.253 2°52.699 5.2 241 18.9 101260 50
2010-07-02 09:51 51°31.279 2°52.635 4 15 18.9 101270 50
2010-07-02 09:52 51°31.268 2°52.611 5 22 18.9 101270 50
2010-07-02 09:53 51°31.242 2°52.578 4.1 30 18.7 101270 51
2010-07-02 09:54 51°31.239 2°52.571 1 25 18.7 101280 50
2010-07-02 09:55 51°31.247 2°52.575 1.5 25 19 101280 52
2010-07-02 09:56 51°31.25 2°52.576 2.7 27 19.1 101280 50
2010-07-02 09:57 51°31.251 2°52.575 3.1 26 19 101280 49
2010-07-02 09:58 51°31.25 2°52.572 3.8 31 18.9 101270 50
2010-07-02 09:59 51°31.247 2°52.569 3.7 28 18.8 101270 52
2010-07-02 10:00 51°31.244 2°52.567 3.8 20 18.7 101270 50
2010-07-02 10:01 51°31.244 2°52.57 2.9 23 18.7 101270 52
2010-07-02 10:02 51°31.245 2°52.574 3.3 30 18.6 101280 51
2010-07-02 10:03 51°31.244 2°52.577 3.7 44 18.6 101270 50
2010-07-02 10:04 51°31.244 2°52.577 3.6 28 18.6 101280 52
2010-07-02 10:05 51°31.242 2°52.575 3.1 29 18.6 101280 51
2010-07-02 10:06 51°31.243 2°52.574 3.4 31 18.6 101280 51
2010-07-02 10:07 51°31.243 2°52.574 3.5 25 18.5 101280 51
2010-07-02 10:08 51°31.244 2°52.574 3.1 21 18.5 101280 52
2010-07-02 10:09 51°31.243 2°52.575 3.2 24 18.5 101280 51
2010-07-02 10:10 51°31.243 2°52.575 3.3 25 18.5 101280 51
2010-07-02 10:11 51°31.242 2°52.576 3.1 24 18.5 101280 51
2010-07-02 10:12 51°31.241 2°52.578 2.7 28 18.5 101290 51
2010-07-02 10:13 51°31.242 2°52.578 2.7 24 18.4 101290 51
2010-07-02 10:14 51°31.242 2°52.576 2.8 24 18.4 101280 52
2010-07-02 10:15 51°31.242 2°52.575 1.8 25 18.6 101280 51
2010-07-02 10:16 51°31.242 2°52.574 0.6 22 18.9 101280 52
2010-07-02 10:17 51°31.243 2°52.572 2.4 25 19 101290 50
2010-07-02 10:18 51°31.244 2°52.57 3.5 25 18.9 101290 50
2010-07-02 10:19 51°31.246 2°52.568 4.4 29 18.8 101290 51
2010-07-02 10:20 51°31.248 2°52.567 3.8 23 18.9 101290 51
2010-07-02 10:21 51°31.249 2°52.566 3.5 28 18.9 101290 49
2010-07-02 10:22 51°31.25 2°52.565 3.2 29 18.9 101290 51
2010-07-02 10:23 51°31.25 2°52.566 3.3 31 18.8 101290 52
2010-07-02 10:24 51°31.25 2°52.565 3.5 21 18.7 101280 51
2010-07-02 10:25 51°31.249 2°52.565 3.1 29 18.7 101280 52
2010-07-02 10:26 51°31.248 2°52.566 3.2 25 18.6 101280 51
2010-07-02 10:27 51°31.248 2°52.566 3.2 21 18.6 101280 50
2010-07-02 10:28 51°31.247 2°52.567 3 23 18.6 101280 50
2010-07-02 10:29 51°31.247 2°52.567 2.8 28 18.6 101290 52
2010-07-02 10:30 51°31.247 2°52.567 3.1 22 18.6 101280 50
2010-07-02 10:31 51°31.248 2°52.566 3 25 18.6 101290 51
2010-07-02 10:32 51°31.248 2°52.566 3.1 22 18.6 101290 52
2010-07-02 10:33 51°31.248 2°52.566 2.7 23 18.6 101290 51
2010-07-02 10:34 51°31.248 2°52.566 2.8 22 18.6 101290 52
2010-07-02 10:35 51°31.248 2°52.566 2.5 22 18.6 101290 52
2010-07-02 10:36 51°31.247 2°52.567 2.5 30 18.7 101290 52
2010-07-02 10:37 51°31.247 2°52.567 2.5 22 18.8 101290 50
2010-07-02 10:38 51°31.247 2°52.566 2.3 21 18.8 101290 52
2010-07-02 10:39 51°31.247 2°52.567 2 24 18.8 101290 51
2010-07-02 10:40 51°31.247 2°52.567 3.2 29 18.8 101290 50
2010-07-02 10:41 51°31.247 2°52.567 2.8 25 19 101290 49
2010-07-02 10:42 51°31.248 2°52.566 2.6 23 19.2 101290 50
2010-07-02 10:43 51°31.247 2°52.567 1.9 29 19.2 101290 48
2010-07-02 10:44 51°31.246 2°52.567 2.4 22 19.3 101290 49
2010-07-02 10:45 51°31.245 2°52.566 3 28 19.2 101290 49
2010-07-02 10:46 51°31.245 2°52.567 2.9 25 19.1 101290 49
2010-07-02 10:47 51°31.246 2°52.567 2.7 26 19.1 101290 50
2010-07-02 10:48 51°31.246 2°52.566 3 29 19 101290 50
2010-07-02 10:49 51°31.246 2°52.566 3.2 24 19 101290 50
2010-07-02 10:50 51°31.247 2°52.566 3 24 19 101290 51
2010-07-02 10:51 51°31.247 2°52.565 3 27 19.1 101290 49
2010-07-02 10:52 51°31.247 2°52.566 3.2 25 19.1 101290 49
2010-07-02 10:53 51°31.247 2°52.566 3.3 29 19.1 101290 49
2010-07-02 10:54 51°31.246 2°52.566 3.3 29 19.1 101290 49
2010-07-02 10:55 51°31.245 2°52.567 2.5 22 19.2 101290 50
2010-07-02 10:56 51°31.245 2°52.567 2.3 24 19.2 101290 49
2010-07-02 10:57 51°31.245 2°52.568 1.8 31 19.2 101290 48
2010-07-02 10:58 51°31.245 2°52.567 3.1 28 19.3 101290 48
2010-07-02 10:59 51°31.245 2°52.568 2.2 27 19.4 101290 48
2010-07-02 11:00 51°31.245 2°52.569 2.4 23 19.5 101300 49
2010-07-02 11:01 51°31.244 2°52.568 3 30 19.6 101290 47
2010-07-02 11:02 51°31.245 2°52.568 3.3 23 19.6 101290 47
2010-07-02 11:03 51°31.245 2°52.568 2.2 30 19.6 101290 47
2010-07-02 11:04 51°31.245 2°52.568 2.8 23 19.6 101290 47
2010-07-02 11:05 51°31.245 2°52.568 2.6 26 19.5 101300 47
2010-07-02 11:06 51°31.245 2°52.568 2.3 24 19.5 101290 49
2010-07-02 11:07 51°31.245 2°52.569 2.3 23 19.5 101300 49
2010-07-02 11:08 51°31.245 2°52.568 2.3 29 19.6 101290 50
2010-07-02 11:09 51°31.245 2°52.568 2.4 25 19.6 101290 48
2010-07-02 11:10 51°31.245 2°52.569 2.8 28 19.6 101300 49
2010-07-02 11:11 51°31.245 2°52.568 2.7 24 19.6 101300 49
2010-07-02 11:12 51°31.245 2°52.568 2.8 29 19.7 101300 48
2010-07-02 11:13 51°31.245 2°52.568 3.1 27 19.7 101290 48
2010-07-02 11:14 51°31.245 2°52.568 3.6 22 19.8 101300 47
2010-07-02 11:15 51°31.244 2°52.569 3.1 28 19.8 101300 47
2010-07-02 11:16 51°31.245 2°52.569 3.3 30 19.8 101300 47
2010-07-02 11:17 51°31.245 2°52.569 2.9 26 19.8 101300 48
2010-07-02 11:18 51°31.245 2°52.57 3.2 23 19.8 101300 48
2010-07-02 11:19 51°31.245 2°52.569 2.9 26 19.8 101300 47
2010-07-02 11:20 51°31.245 2°52.57 2.8 25 19.8 101300 47
2010-07-02 11:21 51°31.245 2°52.57 3.2 28 19.8 101300 47
2010-07-02 11:22 51°31.245 2°52.569 3 30 19.8 101300 48
2010-07-02 11:23 51°31.246 2°52.569 3.3 23 19.9 101300 47
2010-07-02 11:24 51°31.246 2°52.568 3.2 32 19.9 101310 47
2010-07-02 11:25 51°31.246 2°52.566 3.1 22 19.9 101310 48
2010-07-02 11:26 51°31.247 2°52.567 3 31 19.9 101310 47
2010-07-02 11:27 51°31.246 2°52.568 3 24 19.9 101310 47
2010-07-02 11:28 51°31.246 2°52.568 2.7 21 19.9 101300 47
2010-07-02 11:29 51°31.245 2°52.568 2.7 25 19.9 101310 48
2010-07-02 11:30 51°31.244 2°52.569 2.1 25 19.9 101300 48
2010-07-02 11:31 51°31.247 2°52.573 2.1 25 19.9 101300 47
2010-07-02 11:32 51°31.257 2°52.589 1.7 29 19.9 101300 47
2010-07-02 11:33 51°31.267 2°52.602 2 28 19.9 101300 48
2010-07-02 11:34 51°31.277 2°52.608 1.4 20 19.9 101300 48
2010-07-02 11:35 51°31.337 2°52.724 2.1 317 19.9 101300 48
2010-07-02 11:36 51°31.458 2°52.965 2.5 326 19.9 101300 48
2010-07-02 11:37 51°31.572 2°53.223 3.1 277 19.9 101310 49
2010-07-02 11:38 51°31.686 2°53.483 3.2 329 19.9 101310 47
2010-07-02 11:39 51°31.799 2°53.744 2.5 325 19.9 101310 49
2010-07-02 11:40 51°31.912 2°54.004 2.7 327 19.9 101300 47
2010-07-02 11:41 51°32.012 2°54.278 2.3 327 19.9 101310 49
2010-07-02 11:42 51°32.107 2°54.558 2.4 325 19.9 101310 47
2010-07-02 11:43 51°32.203 2°54.835 2.1 328 20 101310 49
2010-07-02 11:44 51°32.299 2°55.115 2.1 328 20.1 101310 49
2010-07-02 11:45 51°32.393 2°55.38 1.2 323 20.1 101310 49
2010-07-02 11:46 51°32.469 2°55.546 -999 281 20.2 101310 47
2010-07-02 11:48 51°32.538 2°55.642 0.1 304 20.3 101310 48
2010-07-02 11:49 51°32.554 2°55.667 2.3 60 20.4 101310 46
2010-07-02 11:50 51°32.535 2°55.644 2.8 54 20.2 101310 48
2010-07-02 11:51 51°32.521 2°55.63 2.1 58 20.1 101310 47
2010-07-02 11:52 51°32.525 2°55.64 2.1 61 20.1 101310 47
2010-07-02 11:53 51°32.527 2°55.643 2.1 54 20.1 101310 48
2010-07-02 11:54 51°32.529 2°55.637 2.3 303 20.2 101310 48
2010-07-02 11:55 51°32.528 2°55.628 2.2 309 20.3 101310 48
2010-07-02 11:56 51°32.528 2°55.625 2.2 55 20.4 101310 46
2010-07-02 11:57 51°32.53 2°55.628 2.5 60 20.5 101310 44
2010-07-02 11:58 51°32.531 2°55.627 2.3 302 20.6 101310 45
2010-07-02 11:59 51°32.532 2°55.625 2.3 306 20.7 101310 47
2010-07-02 12:00 51°32.531 2°55.625 2.2 63 20.7 101310 45
2010-07-02 12:01 51°32.53 2°55.626 2.1 300 20.7 101310 47
2010-07-02 12:02 51°32.53 2°55.626 2 308 20.7 101310 45
2010-07-02 12:03 51°32.529 2°55.626 1.9 53 20.7 101300 45
2010-07-02 12:04 51°32.528 2°55.626 2.1 61 20.7 101300 45
2010-07-02 12:05 51°32.53 2°55.626 2 55 20.7 101300 44
2010-07-02 12:06 51°32.531 2°55.626 1.8 62 20.8 101300 46
2010-07-02 12:07 51°32.529 2°55.626 2.1 60 20.8 101300 45
2010-07-02 12:08 51°32.53 2°55.625 2.2 55 20.9 101300 44
2010-07-02 12:09 51°32.53 2°55.625 1.8 58 20.9 101300 44
2010-07-02 12:10 51°32.529 2°55.627 1.7 52 20.9 101300 45
2010-07-02 12:11 51°32.528 2°55.628 2.5 58 20.9 101300 46
2010-07-02 12:12 51°32.531 2°55.63 2 300 20.9 101300 44
2010-07-02 12:13 51°32.528 2°55.628 2 300 20.9 101300 44
2010-07-02 12:14 51°32.528 2°55.629 1.9 308 20.8 101310 46
2010-07-02 12:15 51°32.527 2°55.627 1.8 305 20.8 101300 45
2010-07-02 12:16 51°32.528 2°55.625 1.4 306 20.8 101300 45
2010-07-02 12:17 51°32.53 2°55.624 2 300 20.8 101300 45
2010-07-02 12:18 51°32.531 2°55.624 1.9 307 20.7 101310 46
2010-07-02 12:19 51°32.532 2°55.624 1.9 307 20.7 101300 45
2010-07-02 12:20 51°32.531 2°55.624 1.9 299 20.7 101300 46
2010-07-02 12:21 51°32.53 2°55.624 2.1 306 20.6 101300 45
2010-07-02 12:22 51°32.529 2°55.626 1.8 306 20.6 101300 45
2010-07-02 12:23 51°32.528 2°55.627 1.7 58 20.6 101300 46
2010-07-02 12:24 51°32.527 2°55.627 1.7 56 20.5 101300 45
2010-07-02 12:25 51°32.528 2°55.627 1.9 307 20.6 101300 46
2010-07-02 12:26 51°32.529 2°55.626 1.1 300 20.6 101300 46
2010-07-02 12:27 51°32.531 2°55.625 2 307 20.6 101300 45
2010-07-02 12:28 51°32.531 2°55.626 2.1 303 20.6 101300 45
2010-07-02 12:29 51°32.53 2°55.625 2 307 20.6 101300 44
2010-07-02 12:30 51°32.529 2°55.625 1.8 308 20.6 101300 47
2010-07-02 12:31 51°32.529 2°55.628 1.9 306 20.6 101300 47
2010-07-02 12:32 51°32.529 2°55.627 2.1 301 20.5 101300 45
2010-07-02 12:33 51°32.528 2°55.626 2.1 308 20.5 101300 46
2010-07-02 12:34 51°32.528 2°55.627 1.3 308 20.4 101300 46
2010-07-02 12:35 51°32.529 2°55.626 1.6 309 20.4 101300 48
2010-07-02 12:36 51°32.529 2°55.625 1.9 299 20.3 101300 48
2010-07-02 12:37 51°32.529 2°55.626 1.7 301 20.3 101290 46
2010-07-02 12:38 51°32.529 2°55.627 1.9 299 20.3 101300 47
2010-07-02 12:39 51°32.528 2°55.626 0.8 306 20.3 101300 48
2010-07-02 12:40 51°32.528 2°55.627 0.8 306 20.2 101300 47
2010-07-02 12:41 51°32.527 2°55.627 1.3 301 20.2 101290 49
2010-07-02 12:42 51°32.527 2°55.627 1.1 306 20.2 101300 47
2010-07-02 12:43 51°32.528 2°55.626 1.3 306 20.2 101300 47
2010-07-02 12:44 51°32.529 2°55.625 1.9 307 20.2 101300 47
2010-07-02 12:45 51°32.529 2°55.626 1.1 307 20.2 101290 47
2010-07-02 12:46 51°32.529 2°55.626 0.7 301 20.2 101300 48
2010-07-02 12:47 51°32.528 2°55.627 0.6 302 20.2 101300 48
2010-07-02 12:48 51°32.528 2°55.629 1.6 301 20.3 101290 47
2010-07-02 12:49 51°32.528 2°55.627 2.3 282 20.3 101300 47
2010-07-02 12:50 51°32.527 2°55.627 2.1 282 20.3 101290 47
2010-07-02 12:51 51°32.528 2°55.627 2.2 282 20.3 101290 49
2010-07-02 12:52 51°32.527 2°55.628 2.7 300 20.2 101290 49
2010-07-02 12:53 51°32.528 2°55.629 3 283 20.3 101300 46
2010-07-02 12:54 51°32.528 2°55.628 3.4 302 20.3 101290 49
2010-07-02 12:55 51°32.528 2°55.628 3.6 281 20.3 101290 49
2010-07-02 12:56 51°32.529 2°55.628 3.3 282 20.3 101290 49
2010-07-02 12:57 51°32.529 2°55.627 3.6 283 20.3 101290 47
2010-07-02 12:58 51°32.529 2°55.627 4.1 284 20.4 101290 48
2010-07-02 12:59 51°32.53 2°55.626 3.5 278 20.3 101290 48
2010-07-02 13:00 51°32.53 2°55.627 3.2 279 20.4 101290 46
2010-07-02 13:01 51°32.529 2°55.626 3.3 282 20.3 101290 45
2010-07-02 13:02 51°32.529 2°55.626 3.3 282 20.3 101290 46
2010-07-02 13:03 51°32.528 2°55.627 3.7 283 20.3 101290 46
2010-07-02 13:04 51°32.529 2°55.628 3.1 281 20.3 101290 46
2010-07-02 13:05 51°32.529 2°55.626 2.9 283 20.3 101290 47
2010-07-02 13:06 51°32.53 2°55.626 3.2 302 20.4 101290 46
2010-07-02 13:07 51°32.531 2°55.626 3 285 20.4 101290 47
2010-07-02 13:08 51°32.531 2°55.628 3.5 283 20.4 101290 46
2010-07-02 13:09 51°32.531 2°55.628 3.5 284 20.4 101290 45
2010-07-02 13:10 51°32.531 2°55.626 2.8 284 20.4 101290 46
2010-07-02 13:11 51°32.53 2°55.625 3.1 283 20.4 101290 46
2010-07-02 13:12 51°32.53 2°55.625 4 277 20.4 101290 48
2010-07-02 13:13 51°32.53 2°55.625 3.5 284 20.4 101290 46
2010-07-02 13:14 51°32.53 2°55.625 3.1 283 20.4 101290 48
2010-07-02 13:15 51°32.531 2°55.625 3.2 299 20.4 101280 46
2010-07-02 13:16 51°32.531 2°55.627 2.7 283 20.4 101290 46
2010-07-02 13:17 51°32.531 2°55.626 3.2 283 20.4 101290 47
2010-07-02 13:18 51°32.53 2°55.626 2.1 282 20.4 101290 47
2010-07-02 13:19 51°32.53 2°55.626 2.7 278 20.4 101290 46
2010-07-02 13:20 51°32.53 2°55.626 3.1 278 20.4 101290 47
2010-07-02 13:21 51°32.531 2°55.628 2.8 283 20.4 101290 48
2010-07-02 13:22 51°32.53 2°55.626 3 277 20.4 101290 47
2010-07-02 13:23 51°32.53 2°55.626 2.6 282 20.4 101290 48
2010-07-02 13:24 51°32.53 2°55.626 3.3 278 20.3 101290 47
2010-07-02 13:25 51°32.53 2°55.627 3.3 282 20.3 101290 46
2010-07-02 13:26 51°32.529 2°55.627 3.8 283 20.3 101290 48
2010-07-02 13:27 51°32.529 2°55.627 3.4 277 20.2 101290 48
2010-07-02 13:28 51°32.529 2°55.627 3.9 283 20.2 101290 47
2010-07-02 13:29 51°32.529 2°55.628 4.2 281 20.1 101290 47
2010-07-02 13:30 51°32.529 2°55.628 4.2 283 20.1 101290 47
2010-07-02 13:31 51°32.528 2°55.627 4 280 20.1 101290 49
2010-07-02 13:32 51°32.529 2°55.628 4.2 278 20 101290 49
2010-07-02 13:33 51°32.529 2°55.627 4.5 278 20 101280 48
2010-07-02 13:34 51°32.528 2°55.628 4.6 284 20 101280 49
2010-07-02 13:35 51°32.528 2°55.629 5.1 282 20 101290 48
2010-07-02 13:36 51°32.527 2°55.629 5.1 308 19.9 101290 48
2010-07-02 13:37 51°32.527 2°55.63 5.5 304 19.9 101290 49
2010-07-02 13:38 51°32.526 2°55.63 5.2 302 19.9 101280 48
2010-07-02 13:39 51°32.527 2°55.629 5.4 305 19.9 101280 48
2010-07-02 13:40 51°32.527 2°55.629 5.1 305 19.9 101290 49
2010-07-02 13:41 51°32.528 2°55.629 5.6 305 19.9 101290 47
2010-07-02 13:42 51°32.528 2°55.629 5.6 277 19.9 101280 48
2010-07-02 13:43 51°32.528 2°55.629 5.4 306 19.9 101280 48
2010-07-02 13:44 51°32.528 2°55.629 5.3 281 19.9 101280 49
2010-07-02 13:45 51°32.527 2°55.63 5.6 307 19.9 101280 49
2010-07-02 13:46 51°32.53 2°55.632 4.8 302 19.9 101280 49
2010-07-02 13:47 51°32.542 2°55.641 5.3 303 19.9 101280 47
2010-07-02 13:48 51°32.555 2°55.662 4.8 300 19.8 101280 48
2010-07-02 13:49 51°32.566 2°55.673 4.8 283 19.8 101280 47
2010-07-02 13:50 51°32.579 2°55.677 4.5 277 19.8 101280 48
2010-07-02 13:51 51°32.596 2°55.688 3.9 277 19.8 101280 49
2010-07-02 13:52 51°32.612 2°55.703 4.7 282 19.8 101280 48
2010-07-02 13:53 51°32.634 2°55.701 4.8 281 19.8 101280 49
2010-07-02 13:54 51°32.665 2°55.684 5.1 283 19.8 101270 48
2010-07-02 13:55 51°32.701 2°55.667 5.4 280 19.8 101270 49
2010-07-02 13:56 51°32.725 2°55.636 5.2 283 19.8 101270 48
2010-07-02 13:57 51°32.737 2°55.612 5.6 280 19.7 101270 47
2010-07-02 13:58 51°32.744 2°55.594 4.9 284 19.7 101270 48
2010-07-02 13:59 51°32.747 2°55.583 4.8 282 19.7 101270 48
2010-07-02 14:00 51°32.746 2°55.573 4.7 283 19.7 101270 49
2010-07-02 14:01 51°32.743 2°55.567 4.6 280 19.7 101270 49
2010-07-02 14:02 51°32.739 2°55.562 5 277 19.6 101270 49
2010-07-02 14:03 51°32.733 2°55.558 5.4 279 19.6 101270 48
2010-07-02 14:04 51°32.726 2°55.556 4.6 277 19.7 101270 48
2010-07-02 14:05 51°32.718 2°55.554 4.5 282 19.7 101280 46
2010-07-02 14:06 51°32.71 2°55.554 4.3 278 19.7 101270 48
2010-07-02 14:07 51°32.702 2°55.555 4.1 277 19.7 101270 49
2010-07-02 14:08 51°32.693 2°55.557 3.7 277 19.7 101270 48
2010-07-02 14:09 51°32.684 2°55.56 3.5 284 19.7 101270 48
2010-07-02 14:10 51°32.674 2°55.564 3.6 282 19.8 101280 49
2010-07-02 14:11 51°32.665 2°55.567 3.1 281 19.8 101270 48
2010-07-02 14:12 51°32.656 2°55.57 3.6 277 19.8 101270 48
2010-07-02 14:13 51°32.646 2°55.573 3.7 278 19.8 101270 47
2010-07-02 14:14 51°32.637 2°55.577 3.9 283 19.8 101270 49
2010-07-02 14:15 51°32.627 2°55.581 3.8 278 19.8 101280 48
2010-07-02 14:16 51°32.617 2°55.586 3.8 277 19.8 101270 49
2010-07-02 14:17 51°32.607 2°55.591 2.6 278 19.7 101280 48
2010-07-02 14:18 51°32.596 2°55.596 2.2 279 19.6 101270 48
2010-07-02 14:19 51°32.584 2°55.602 2.5 285 19.5 101270 48
2010-07-02 14:20 51°32.573 2°55.608 2.9 283 19.5 101270 48
2010-07-02 14:21 51°32.561 2°55.616 2.6 283 19.4 101270 48
2010-07-02 14:22 51°32.549 2°55.623 2.8 282 19.4 101270 48
2010-07-02 14:23 51°32.538 2°55.629 2.6 277 19.4 101270 48
2010-07-02 14:24 51°32.527 2°55.636 2.2 277 19.4 101270 50
2010-07-02 14:25 51°32.519 2°55.647 3.9 278 19.4 101270 48
2010-07-02 14:26 51°32.573 2°55.679 4.9 285 19.4 101260 49
2010-07-02 14:27 51°32.662 2°55.688 5.9 277 19.4 101260 49
2010-07-02 14:28 51°32.719 2°55.674 5.1 283 19.4 101260 48
2010-07-02 14:29 51°32.745 2°55.66 4.6 281 19.3 101260 48
2010-07-02 14:30 51°32.754 2°55.664 4.1 277 19.3 101260 49
2010-07-02 14:31 51°32.762 2°55.671 4 285 19.4 101260 50
2010-07-02 14:32 51°32.777 2°55.667 4 276 19.4 101250 49
2010-07-02 14:33 51°32.788 2°55.642 4.4 283 19.5 101250 48
2010-07-02 14:34 51°32.792 2°55.617 4 277 19.5 101250 47
2010-07-02 14:35 51°32.79 2°55.597 3.8 277 19.5 101250 49
2010-07-02 14:36 51°32.789 2°55.584 3.6 284 19.5 101250 48
2010-07-02 14:37 51°32.786 2°55.577 3.5 282 19.6 101250 48
2010-07-02 14:38 51°32.784 2°55.576 3.8 277 19.7 101250 48
2010-07-02 14:39 51°32.779 2°55.579 4.1 277 19.8 101250 49
2010-07-02 14:40 51°32.774 2°55.584 4.5 283 19.8 101250 47
2010-07-02 14:41 51°32.769 2°55.591 4.6 282 19.9 101250 48
2010-07-02 14:42 51°32.762 2°55.599 4.6 279 20 101250 47
2010-07-02 14:43 51°32.755 2°55.606 2.5 281 20 101250 48
2010-07-02 14:44 51°32.748 2°55.612 3.1 275 20 101250 48
2010-07-02 14:45 51°32.742 2°55.619 3.3 32 20 101250 45
2010-07-02 14:46 51°32.734 2°55.625 3.3 77 19.9 101250 46
2010-07-02 14:47 51°32.738 2°55.65 3.4 283 19.9 101250 48
2010-07-02 14:48 51°32.763 2°55.666 4.5 284 19.9 101250 47
2010-07-02 14:49 51°32.788 2°55.636 4.8 335 19.9 101250 46
2010-07-02 14:50 51°32.795 2°55.597 4.3 338 19.9 101250 46
2010-07-02 14:51 51°32.796 2°55.57 4.1 339 19.8 101250 46
2010-07-02 14:52 51°32.797 2°55.552 4.2 332 19.8 101250 46
2010-07-02 14:53 51°32.798 2°55.542 4 299 19.9 101250 45
2010-07-02 14:54 51°32.798 2°55.539 3.8 300 20 101250 48
2010-07-02 14:55 51°32.799 2°55.543 3.6 307 20 101250 48
2010-07-02 14:56 51°32.799 2°55.55 3.4 306 20.1 101250 46
2010-07-02 14:57 51°32.812 2°55.534 5.1 333 20.1 101250 47
2010-07-02 14:58 51°32.814 2°55.458 4.6 355 20 101250 47
2010-07-02 14:59 51°32.763 2°55.398 4.2 13 19.7 101240 48
2010-07-02 15:00 51°32.683 2°55.393 3.5 17 19.6 101240 49
2010-07-02 15:01 51°32.595 2°55.408 3.4 16 19.5 101250 48
2010-07-02 15:02 51°32.5 2°55.421 4.1 8 19.6 101250 48
2010-07-02 15:03 51°32.311 2°55.437 5.9 356 19.6 101240 49
2010-07-02 15:04 51°32.089 2°55.453 5.7 355 19.5 101240 49
2010-07-02 15:05 51°31.866 2°55.47 5.8 357 19.4 101240 48
2010-07-02 15:06 51°31.643 2°55.489 6.2 357 19.4 101230 49
2010-07-02 15:07 51°31.419 2°55.507 6.9 356 19.3 101230 49
2010-07-02 15:08 51°31.2 2°55.47 6.3 355 19.3 101220 48
2010-07-02 15:09 51°30.982 2°55.431 6.9 357 19.2 101220 48
2010-07-02 15:10 51°30.763 2°55.392 7.1 357 19.2 101220 48
2010-07-02 15:11 51°30.551 2°55.364 6.8 358 19.2 101210 47
2010-07-02 15:12 51°30.342 2°55.339 6.6 356 19.2 101210 47
2010-07-02 15:13 51°30.132 2°55.314 5.8 356 19.2 101210 47
2010-07-02 15:14 51°29.919 2°55.29 5.9 355 19.2 101220 47
2010-07-02 15:15 51°29.708 2°55.264 5.6 356 19.1 101210 48
2010-07-02 15:16 51°29.496 2°55.242 5.7 354 19.1 101210 49
2010-07-02 15:17 51°29.28 2°55.218 5.3 354 19.2 101220 47
2010-07-02 15:18 51°29.064 2°55.185 5.9 356 19.2 101220 49
2010-07-02 15:19 51°28.846 2°55.149 5.4 353 19.2 101220 47
2010-07-02 15:20 51°28.63 2°55.11 5.1 352 19.3 101220 47
2010-07-02 15:21 51°28.416 2°55.073 4.4 351 19.3 101210 47
2010-07-02 15:22 51°28.205 2°55.034 4.6 351 19.3 101220 47
2010-07-02 15:23 51°27.996 2°54.993 4.4 352 19.4 101210 48
2010-07-02 15:24 51°27.79 2°54.954 4.2 351 19.4 101210 48
2010-07-02 15:25 51°27.584 2°54.917 3.8 351 19.4 101210 47
2010-07-02 15:26 51°27.379 2°54.878 4.2 347 19.4 101210 49
2010-07-02 15:27 51°27.172 2°54.837 3.7 347 19.4 101210 48
2010-07-02 15:28 51°26.963 2°54.798 3.6 342 19.5 101210 50
2010-07-02 15:29 51°26.754 2°54.762 3.8 341 19.6 101210 49
2010-07-02 15:30 51°26.543 2°54.726 3.6 343 19.7 101210 48
2010-07-02 15:31 51°26.332 2°54.687 4.1 343 19.8 101210 49
2010-07-02 15:32 51°26.123 2°54.647 4 343 19.9 101210 48
2010-07-02 15:33 51°25.914 2°54.607 4 338 20 101210 48
2010-07-02 15:34 51°25.703 2°54.567 4.2 345 20 101210 48
2010-07-02 15:35 51°25.492 2°54.525 4.1 344 20.1 101200 48
2010-07-02 15:36 51°25.28 2°54.483 4.6 344 20.1 101210 48
2010-07-02 15:37 51°25.066 2°54.442 4.4 345 20.1 101200 49
2010-07-02 15:38 51°24.85 2°54.399 4.3 341 20.1 101210 48
2010-07-02 15:39 51°24.637 2°54.358 4 342 20.3 101210 48
2010-07-02 15:40 51°24.423 2°54.32 4.1 345 20.3 101200 50
2010-07-02 15:41 51°24.212 2°54.282 3.8 342 20.3 101200 48
2010-07-02 15:42 51°24.002 2°54.25 3.8 342 20.4 101200 49
2010-07-02 15:43 51°23.795 2°54.217 3.5 342 20.4 101200 50
2010-07-02 15:44 51°23.594 2°54.168 3.4 345 20.4 101200 49
2010-07-02 15:45 51°23.396 2°54.102 3.3 343 20.5 101200 50
2010-07-02 15:46 51°23.198 2°54.039 3.4 343 20.5 101200 48
2010-07-02 15:47 51°22.999 2°53.978 3.6 343 20.6 101200 50
2010-07-02 15:48 51°22.799 2°53.917 3.5 344 20.6 101200 49
2010-07-02 15:49 51°22.599 2°53.858 3.4 341 20.7 101200 47
2010-07-02 15:50 51°22.395 2°53.805 3.4 344 20.7 101200 48
2010-07-02 15:51 51°22.191 2°53.754 3.2 341 20.8 101200 49
2010-07-02 15:52 51°21.985 2°53.702 3.5 345 20.8 101200 48
2010-07-02 15:53 51°21.78 2°53.649 3.4 339 20.9 101200 49
2010-07-02 15:54 51°21.574 2°53.596 3.3 275 20.9 101200 48
2010-07-02 15:55 51°21.369 2°53.541 3.7 337 20.9 101210 50
2010-07-02 15:56 51°21.165 2°53.488 3.7 336 21 101210 48
2010-07-02 15:57 51°20.963 2°53.435 3.6 334 21.1 101220 47
2010-07-02 15:58 51°20.761 2°53.382 3.6 334 21.1 101210 50
2010-07-02 15:59 51°20.559 2°53.328 3.5 335 21.1 101210 48
2010-07-02 16:00 51°20.358 2°53.273 3.8 335 21.2 101210 50
2010-07-02 16:01 51°20.157 2°53.217 3.4 337 21.2 101210 48
2010-07-02 16:02 51°19.954 2°53.162 3.6 333 21.3 101210 48
2010-07-02 16:03 51°19.75 2°53.108 3.5 278 21.3 101210 48
2010-07-02 16:04 51°19.545 2°53.054 3.2 333 21.4 101210 48
2010-07-02 16:05 51°19.339 2°53 1.9 331 21.4 101200 48
2010-07-02 16:06 51°19.134 2°52.947 2.8 329 21.5 101200 48
2010-07-02 16:07 51°18.929 2°52.895 3.3 300 21.5 101200 48
2010-07-02 16:08 51°18.724 2°52.845 3.7 325 21.6 101210 48
2010-07-02 16:09 51°18.521 2°52.777 3.5 324 21.7 101220 48
2010-07-02 16:10 51°18.32 2°52.696 3.7 306 21.7 101220 48
2010-07-02 16:11 51°18.118 2°52.616 3.3 308 21.8 101220 48
2010-07-02 16:12 51°17.917 2°52.54 3.4 277 21.8 101220 48
2010-07-02 16:13 51°17.717 2°52.465 3.6 308 21.9 101220 47
2010-07-02 16:14 51°17.514 2°52.413 4.1 306 22 101210 49
2010-07-02 16:15 51°17.308 2°52.439 5 308 22 101210 48
2010-07-02 16:16 51°17.107 2°52.558 5.8 301 21.9 101210 49
2010-07-02 16:17 51°16.907 2°52.692 5.3 301 21.8 101210 50
2010-07-02 16:18 51°16.706 2°52.822 5.9 306 21.7 101220 49
2010-07-02 16:19 51°16.506 2°52.959 5.9 282 21.6 101220 49
2010-07-02 16:20 51°16.309 2°53.103 5.4 306 21.5 101220 48
2010-07-02 16:21 51°16.112 2°53.244 6.9 277 21.6 101230 49
2010-07-02 16:22 51°15.915 2°53.385 6.2 301 21.5 101240 50
2010-07-02 16:23 51°15.721 2°53.546 6.9 301 21.5 101240 50
2010-07-02 16:24 51°15.539 2°53.746 6.9 305 21.6 101250 50
2010-07-02 16:25 51°15.362 2°53.963 4.8 302 21.6 101250 47
2010-07-02 16:26 51°15.191 2°54.194 5 302 21.8 101250 48
2010-07-02 16:27 51°15.021 2°54.424 6.5 307 21.9 101250 49
2010-07-02 16:28 51°14.852 2°54.652 6.6 281 21.9 101250 48
2010-07-02 16:29 51°14.679 2°54.87 5.8 306 21.9 101250 48
2010-07-02 16:30 51°14.499 2°55.073 5.9 279 21.9 101260 49
2010-07-02 16:31 51°14.312 2°55.247 5.6 305 21.8 101260 49
2010-07-02 16:32 51°14.168 2°55.377 4 308 21.7 101270 49
2010-07-02 16:33 51°14.049 2°55.464 1.2 307 21.7 101270 49
2010-07-02 16:34 51°13.946 2°55.539 1.6 301 21.9 101270 46
2010-07-02 16:35 51°13.847 2°55.614 -999 331 22.1 101270 45
2010-07-02 16:36 51°13.77 2°55.694 0.7 326 22.3 101270 45
2010-07-02 16:37 51°13.719 2°55.793 -999 327 22.5 101280 43
2010-07-02 16:38 51°13.684 2°55.882 -999 337 22.6 101300 44
2010-07-02 16:39 51°13.669 2°55.942 1.8 346 22.7 101320 44